Terminal Aerodrome Forecast
Issued by NWS

Home | Current Version | Previous Version | Text Only | Print | Product List | Glossary On
Versions: 1 2 3 4 5 6 7 8 9 10 11 12 13 14 15 16 17 18 19 20 21 22 23 24
079
FTUS43 KDLH 081733
TAFHYR
TAF
KHYR 081733Z 0818/0918 32009G15KT 5SM -SN BKN018 OVC035
      TEMPO 0818/0820 2SM -SN SCT018 OVC030
     FM082000 32010G17KT 5SM -SN BKN020 OVC035
     FM090300 34008G16KT 6SM -SN BKN020 OVC035
     FM091000 34008G15KT P6SM -SN BKN025=

USA.gov is the U.S. government's official web portal to all federal, state and local government web resources and services.